Wetterdaten: Woche 17.10.11 - 23.10.11 (KW42)
Datum Zeit Temperatur Luftfeuchte Luftdruck Niederschlag Windrichtung Sonnenschein Solar Wind
17.10.2011 00:00 4,9 C 97 % 1025,9 hPa 0,0 l/m W-SW 0,00 h 0 W/m 5,1 km/h (1 Bft)
17.10.2011 01:00 5,1 C 98 % 1025,7 hPa 0,0 l/m W-SW 0,00 h 0 W/m 7,4 km/h (2 Bft)
17.10.2011 02:00 5,2 C 98 % 1025,5 hPa 0,0 l/m W-SW 0,00 h 0 W/m 4,7 km/h (1 Bft)
17.10.2011 03:00 5,5 C 98 % 1025,1 hPa 0,0 l/m W-SW 0,00 h 0 W/m 4,8 km/h (1 Bft)
17.10.2011 04:00 5,7 C 98 % 1024,8 hPa 0,0 l/m W-SW 0,00 h 0 W/m 5,9 km/h (2 Bft)
17.10.2011 05:00 5,8 C 98 % 1024,7 hPa 0,0 l/m W-SW 0,00 h 0 W/m 4,5 km/h (1 Bft)
17.10.2011 06:00 5,9 C 98 % 1024,8 hPa 0,0 l/m W-SW 0,00 h 0 W/m 7,0 km/h (2 Bft)
17.10.2011 07:00 6,0 C 98 % 1024,8 hPa 0,0 l/m W-SW 0,00 h 0 W/m 3,7 km/h (1 Bft)
17.10.2011 08:00 6,2 C 99 % 1025,2 hPa 0,2 l/m W-SW 0,00 h 10 W/m 6,2 km/h (2 Bft)
17.10.2011 09:00 6,3 C 99 % 1025,3 hPa 0,0 l/m W-SW 0,00 h 28 W/m 7,6 km/h (2 Bft)
17.10.2011 10:00 6,8 C 98 % 1025,3 hPa 0,0 l/m W-NW 0,00 h 52 W/m 8,8 km/h (2 Bft)
17.10.2011 11:00 7,6 C 97 % 1025,1 hPa 0,0 l/m W-NW 0,00 h 80 W/m 7,9 km/h (2 Bft)
17.10.2011 12:00 8,3 C 96 % 1024,9 hPa 0,0 l/m W 0,00 h 91 W/m 7,0 km/h (2 Bft)
17.10.2011 13:00 9,3 C 92 % 1024,2 hPa 0,0 l/m W 0,00 h 107 W/m 8,0 km/h (2 Bft)
17.10.2011 14:00 9,9 C 89 % 1023,5 hPa 0,0 l/m W 0,00 h 111 W/m 10,3 km/h (2 Bft)
17.10.2011 15:00 10,2 C 86 % 1022,9 hPa 0,0 l/m W-SW 0,08 h 161 W/m 12,3 km/h (3 Bft)
17.10.2011 16:00 10,5 C 85 % 1022,5 hPa 0,0 l/m SW 1,00 h 268 W/m 11,8 km/h (2 Bft)
17.10.2011 17:00 10,3 C 87 % 1022,2 hPa 0,0 l/m SW 0,83 h 108 W/m 6,8 km/h (2 Bft)
17.10.2011 18:00 9,6 C 87 % 1022,3 hPa 0,0 l/m N 0,00 h 12 W/m 0,9 km/h (0 Bft)
17.10.2011 19:00 7,8 C 88 % 1022,3 hPa 0,0 l/m N 0,00 h 0 W/m 0,4 km/h (0 Bft)
17.10.2011 20:00 6,3 C 90 % 1022,2 hPa 0,0 l/m N 0,00 h 0 W/m 0,0 km/h (0 Bft)
17.10.2011 21:00 5,3 C 92 % 1022,0 hPa 0,0 l/m N 0,00 h 0 W/m 0,5 km/h (0 Bft)
17.10.2011 22:00 5,8 C 95 % 1021,7 hPa 0,0 l/m N 0,00 h 0 W/m 1,5 km/h (1 Bft)
17.10.2011 23:00 6,5 C 96 % 1021,6 hPa 0,0 l/m N 0,00 h 0 W/m 2,3 km/h (1 Bft)
18.10.2011 00:00 6,2 C 97 % 1021,4 hPa 0,0 l/m SW 0,00 h 0 W/m 3,6 km/h (1 Bft)
18.10.2011 01:00 6,3 C 97 % 1021,1 hPa 0,0 l/m SW 0,00 h 0 W/m 4,0 km/h (1 Bft)
18.10.2011 02:00 6,5 C 98 % 1020,8 hPa 0,0 l/m SW 0,00 h 0 W/m 3,9 km/h (1 Bft)
18.10.2011 03:00 6,6 C 98 % 1020,3 hPa 0,0 l/m SW 0,00 h 0 W/m 3,5 km/h (1 Bft)
18.10.2011 04:00 6,8 C 98 % 1019,4 hPa 0,0 l/m S-SW 0,00 h 0 W/m 9,8 km/h (2 Bft)
18.10.2011 05:00 6,4 C 98 % 1019,3 hPa 0,0 l/m S-SW 0,00 h 0 W/m 6,3 km/h (2 Bft)
18.10.2011 06:00 6,0 C 98 % 1019,1 hPa 0,0 l/m S-SW 0,00 h 0 W/m 2,7 km/h (1 Bft)
18.10.2011 07:00 6,1 C 98 % 1018,9 hPa 0,0 l/m S-SW 0,00 h 6 W/m 4,5 km/h (1 Bft)
18.10.2011 08:00 6,0 C 98 % 1018,8 hPa 0,0 l/m S 0,00 h 21 W/m 9,1 km/h (2 Bft)
18.10.2011 09:00 6,3 C 99 % 1018,6 hPa 0,0 l/m S 0,00 h 99 W/m 8,9 km/h (2 Bft)
18.10.2011 10:00 7,2 C 99 % 1018,2 hPa 0,0 l/m S-SW 0,00 h 124 W/m 11,3 km/h (2 Bft)
18.10.2011 11:00 8,6 C 98 % 1017,7 hPa 0,0 l/m SO 0,83 h 381 W/m 12,0 km/h (2 Bft)
18.10.2011 12:00 11,4 C 91 % 1016,9 hPa 0,2 l/m S 1,00 h 509 W/m 14,6 km/h (3 Bft)
18.10.2011 13:00 13,9 C 79 % 1016,0 hPa 0,0 l/m S-SW 1,00 h 525 W/m 19,8 km/h (4 Bft)
18.10.2011 14:00 15,6 C 63 % 1015,1 hPa 0,0 l/m SW 1,00 h 441 W/m 25,5 km/h (4 Bft)
18.10.2011 15:00 15,9 C 60 % 1014,5 hPa 0,0 l/m SW 0,92 h 365 W/m 24,0 km/h (4 Bft)
18.10.2011 16:00 15,6 C 62 % 1014,2 hPa 0,0 l/m W-SW 0,75 h 228 W/m 17,0 km/h (3 Bft)
18.10.2011 17:00 14,6 C 67 % 1013,9 hPa 0,0 l/m SW 0,58 h 86 W/m 14,4 km/h (3 Bft)
18.10.2011 18:00 13,3 C 75 % 1013,5 hPa 0,0 l/m SW 0,00 h 10 W/m 12,0 km/h (2 Bft)
18.10.2011 19:00 11,8 C 82 % 1013,4 hPa 0,0 l/m SW 0,00 h 0 W/m 12,9 km/h (3 Bft)
18.10.2011 20:00 10,9 C 82 % 1013,3 hPa 0,0 l/m W-SW 0,00 h 0 W/m 7,9 km/h (2 Bft)
18.10.2011 21:00 10,8 C 80 % 1013,0 hPa 0,0 l/m SW 0,00 h 0 W/m 7,4 km/h (2 Bft)
18.10.2011 22:00 11,3 C 78 % 1012,9 hPa 0,0 l/m W-SW 0,00 h 0 W/m 8,9 km/h (2 Bft)
18.10.2011 23:00 11,4 C 77 % 1012,5 hPa 0,0 l/m W-SW 0,00 h 0 W/m 11,8 km/h (2 Bft)
19.10.2011 00:00 12,3 C 73 % 1012,3 hPa 0,0 l/m W-SW 0,00 h 0 W/m 10,9 km/h (2 Bft)
19.10.2011 01:00 12,2 C 74 % 1012,4 hPa 0,0 l/m SW 0,00 h 0 W/m 10,0 km/h (2 Bft)
19.10.2011 02:00 11,1 C 81 % 1012,5 hPa 0,0 l/m SW 0,00 h 0 W/m 7,6 km/h (2 Bft)
19.10.2011 03:00 10,2 C 86 % 1012,1 hPa 0,0 l/m SW 0,00 h 0 W/m 8,0 km/h (2 Bft)
19.10.2011 04:00 9,9 C 88 % 1012,2 hPa 0,0 l/m NO 0,00 h 0 W/m 6,1 km/h (2 Bft)
19.10.2011 05:00 9,2 C 89 % 1012,0 hPa 0,0 l/m NO 0,00 h 0 W/m 8,4 km/h (2 Bft)
19.10.2011 06:00 8,0 C 89 % 1011,9 hPa 0,0 l/m N-NO 0,00 h 0 W/m 10,6 km/h (2 Bft)
19.10.2011 07:00 6,9 C 88 % 1011,7 hPa 0,0 l/m N-NO 0,00 h 6 W/m 9,0 km/h (2 Bft)
19.10.2011 08:00 6,5 C 89 % 1012,4 hPa 0,0 l/m N-NO 0,00 h 13 W/m 9,9 km/h (2 Bft)
19.10.2011 09:00 6,3 C 90 % 1012,9 hPa 0,2 l/m N-NO 0,00 h 25 W/m 11,7 km/h (2 Bft)
19.10.2011 10:00 5,9 C 92 % 1013,5 hPa 0,6 l/m N-NO 0,00 h 18 W/m 10,8 km/h (2 Bft)
19.10.2011 11:00 5,4 C 94 % 1014,2 hPa 0,8 l/m N-NO 0,00 h 18 W/m 11,3 km/h (2 Bft)
19.10.2011 12:00 5,3 C 94 % 1014,7 hPa 0,8 l/m N-NO 0,00 h 44 W/m 7,4 km/h (2 Bft)
19.10.2011 13:00 5,3 C 95 % 1015,0 hPa 1,2 l/m N-NO 0,00 h 50 W/m 8,4 km/h (2 Bft)
19.10.2011 14:00 5,0 C 95 % 1015,4 hPa 1,2 l/m N-NO 0,00 h 35 W/m 11,0 km/h (2 Bft)
19.10.2011 15:00 3,9 C 94 % 1016,3 hPa 2,2 l/m N 0,00 h 29 W/m 11,1 km/h (2 Bft)
19.10.2011 16:00 2,8 C 93 % 1017,5 hPa 2,0 l/m NW 0,00 h 19 W/m 6,3 km/h (2 Bft)
19.10.2011 17:00 1,8 C 93 % 1018,5 hPa 1,6 l/m N 0,00 h 9 W/m 0,8 km/h (0 Bft)
19.10.2011 18:00 1,3 C 94 % 1019,5 hPa 0,0 l/m N 0,00 h 0 W/m 0,3 km/h (0 Bft)
19.10.2011 19:00 0,9 C 94 % 1020,5 hPa 0,4 l/m N 0,00 h 0 W/m 0,8 km/h (0 Bft)
19.10.2011 20:00 0,9 C 95 % 1021,1 hPa 0,6 l/m S-SW 0,00 h 0 W/m 4,8 km/h (1 Bft)
19.10.2011 21:00 1,1 C 96 % 1021,4 hPa 0,4 l/m S-SW 0,00 h 0 W/m 6,7 km/h (2 Bft)
19.10.2011 22:00 1,2 C 96 % 1021,8 hPa 0,4 l/m S-SW 0,00 h 0 W/m 7,5 km/h (2 Bft)
19.10.2011 23:00 1,4 C 97 % 1021,9 hPa 0,6 l/m S-SO 0,00 h 0 W/m 7,1 km/h (2 Bft)
20.10.2011 00:00 1,9 C 97 % 1022,2 hPa 0,6 l/m S-SW 0,00 h 0 W/m 8,9 km/h (2 Bft)
20.10.2011 01:00 2,3 C 97 % 1022,5 hPa 0,8 l/m S-SW 0,00 h 0 W/m 10,1 km/h (2 Bft)
20.10.2011 02:00 2,7 C 98 % 1022,9 hPa 0,4 l/m S-SW 0,00 h 0 W/m 4,1 km/h (1 Bft)
20.10.2011 03:00 3,0 C 98 % 1022,9 hPa 0,4 l/m N 0,00 h 0 W/m 1,2 km/h (1 Bft)
20.10.2011 04:00 3,2 C 98 % 1022,9 hPa 0,0 l/m S-SW 0,00 h 0 W/m 2,3 km/h (1 Bft)
20.10.2011 05:00 3,3 C 98 % 1023,2 hPa 0,0 l/m N 0,00 h 0 W/m 1,1 km/h (0 Bft)
20.10.2011 06:00 3,4 C 98 % 1023,6 hPa 0,0 l/m SW 0,00 h 0 W/m 1,7 km/h (1 Bft)
20.10.2011 07:00 3,4 C 98 % 1024,2 hPa 0,0 l/m S-SW 0,00 h 0 W/m 3,5 km/h (1 Bft)
20.10.2011 08:00 3,6 C 98 % 1024,9 hPa 0,0 l/m S-SW 0,00 h 15 W/m 4,3 km/h (1 Bft)
20.10.2011 09:00 4,0 C 98 % 1025,4 hPa 0,0 l/m S-SW 0,08 h 82 W/m 4,1 km/h (1 Bft)
20.10.2011 10:00 5,1 C 94 % 1025,5 hPa 0,0 l/m W 0,33 h 203 W/m 6,2 km/h (2 Bft)
20.10.2011 11:00 5,8 C 89 % 1025,8 hPa 0,0 l/m W 0,42 h 276 W/m 6,5 km/h (2 Bft)
20.10.2011 12:00 6,7 C 83 % 1025,9 hPa 0,0 l/m NW 0,33 h 294 W/m 6,8 km/h (2 Bft)
20.10.2011 13:00 7,6 C 74 % 1025,4 hPa 0,0 l/m NW 0,75 h 477 W/m 8,6 km/h (2 Bft)
20.10.2011 14:00 7,9 C 69 % 1025,1 hPa 0,0 l/m NW 0,50 h 388 W/m 9,1 km/h (2 Bft)
20.10.2011 15:00 8,7 C 57 % 1024,9 hPa 0,0 l/m N 0,75 h 367 W/m 10,9 km/h (2 Bft)
20.10.2011 16:00 8,2 C 55 % 1025,2 hPa 0,0 l/m N-NO 0,67 h 226 W/m 6,5 km/h (2 Bft)
20.10.2011 17:00 7,6 C 67 % 1025,3 hPa 0,0 l/m SW 0,50 h 80 W/m 4,7 km/h (1 Bft)
20.10.2011 18:00 6,1 C 79 % 1025,7 hPa 0,0 l/m N 0,00 h 10 W/m 1,5 km/h (1 Bft)
20.10.2011 19:00 4,4 C 85 % 1026,4 hPa 0,0 l/m N 0,00 h 0 W/m 0,8 km/h (0 Bft)
20.10.2011 20:00 3,1 C 88 % 1026,6 hPa 0,0 l/m N 0,00 h 0 W/m 0,1 km/h (0 Bft)
20.10.2011 21:00 2,1 C 90 % 1026,8 hPa 0,0 l/m N 0,00 h 0 W/m 1,1 km/h (0 Bft)
20.10.2011 22:00 2,1 C 93 % 1027,1 hPa 0,0 l/m N 0,00 h 0 W/m 0,1 km/h (0 Bft)
20.10.2011 23:00 2,0 C 94 % 1027,1 hPa 0,0 l/m N 0,00 h 0 W/m 1,2 km/h (1 Bft)
21.10.2011 00:00 1,5 C 94 % 1027,0 hPa 0,0 l/m N 0,00 h 0 W/m 0,9 km/h (0 Bft)
21.10.2011 01:00 1,0 C 94 % 1027,1 hPa 0,0 l/m N 0,00 h 0 W/m 0,8 km/h (0 Bft)
21.10.2011 02:00 0,5 C 94 % 1027,0 hPa 0,0 l/m N 0,00 h 0 W/m 0,4 km/h (0 Bft)
21.10.2011 03:00 0,2 C 94 % 1026,9 hPa 0,0 l/m N 0,00 h 0 W/m 1,7 km/h (1 Bft)
21.10.2011 04:00 0,1 C 95 % 1026,7 hPa 0,0 l/m N 0,00 h 0 W/m 1,9 km/h (1 Bft)
21.10.2011 05:00 -0,1 C 95 % 1026,5 hPa 0,0 l/m SW 0,00 h 0 W/m 2,7 km/h (1 Bft)
21.10.2011 06:00 -0,2 C 96 % 1026,7 hPa 0,0 l/m W-SW 0,00 h 0 W/m 3,7 km/h (1 Bft)
21.10.2011 07:00 -0,3 C 96 % 1027,0 hPa 0,0 l/m W-NW 0,00 h 5 W/m 4,9 km/h (1 Bft)
21.10.2011 08:00 -0,1 C 97 % 1027,4 hPa 0,2 l/m W-NW 0,00 h 24 W/m 3,9 km/h (1 Bft)
21.10.2011 09:00 0,7 C 97 % 1027,9 hPa 0,0 l/m N-NO 0,00 h 47 W/m 4,9 km/h (1 Bft)
21.10.2011 10:00 1,2 C 98 % 1028,0 hPa 0,0 l/m NO 0,00 h 87 W/m 7,1 km/h (2 Bft)
21.10.2011 11:00 2,3 C 97 % 1027,9 hPa 0,0 l/m NO 0,00 h 85 W/m 10,2 km/h (2 Bft)
21.10.2011 12:00 2,9 C 94 % 1027,9 hPa 0,0 l/m NO 0,00 h 103 W/m 12,1 km/h (2 Bft)
21.10.2011 13:00 4,1 C 89 % 1027,6 hPa 0,0 l/m O-NO 0,00 h 142 W/m 13,3 km/h (3 Bft)
21.10.2011 14:00 5,6 C 81 % 1026,8 hPa 0,0 l/m NO 0,50 h 320 W/m 16,8 km/h (3 Bft)
21.10.2011 15:00 7,0 C 73 % 1026,2 hPa 0,0 l/m O-NO 0,67 h 339 W/m 16,9 km/h (3 Bft)
21.10.2011 16:00 7,0 C 73 % 1026,0 hPa 0,0 l/m NO 0,67 h 216 W/m 13,6 km/h (3 Bft)
21.10.2011 17:00 6,7 C 72 % 1025,8 hPa 0,0 l/m O-NO 0,58 h 77 W/m 13,3 km/h (3 Bft)
21.10.2011 18:00 5,7 C 75 % 1025,9 hPa 0,0 l/m O-NO 0,08 h 10 W/m 5,2 km/h (1 Bft)
21.10.2011 19:00 4,0 C 80 % 1026,0 hPa 0,0 l/m N 0,00 h 0 W/m 3,1 km/h (1 Bft)
21.10.2011 20:00 2,6 C 85 % 1026,1 hPa 0,0 l/m NO 0,00 h 0 W/m 4,5 km/h (1 Bft)
21.10.2011 21:00 1,9 C 88 % 1026,1 hPa 0,0 l/m NO 0,00 h 0 W/m 3,9 km/h (1 Bft)
21.10.2011 22:00 1,4 C 90 % 1026,2 hPa 0,0 l/m NO 0,00 h 0 W/m 4,7 km/h (1 Bft)
21.10.2011 23:00 1,1 C 90 % 1025,9 hPa 0,0 l/m N 0,00 h 0 W/m 2,9 km/h (1 Bft)
22.10.2011 00:00 0,6 C 91 % 1025,4 hPa 0,0 l/m N 0,00 h 0 W/m 2,7 km/h (1 Bft)
22.10.2011 01:00 -0,1 C 92 % 1024,9 hPa 0,0 l/m NO 0,00 h 0 W/m 3,9 km/h (1 Bft)
22.10.2011 02:00 -0,4 C 93 % 1024,7 hPa 0,0 l/m NO 0,00 h 0 W/m 5,1 km/h (1 Bft)
22.10.2011 03:00 0,0 C 95 % 1024,3 hPa 0,0 l/m O-NO 0,00 h 0 W/m 10,2 km/h (2 Bft)
22.10.2011 04:00 0,3 C 96 % 1024,1 hPa 0,0 l/m O-NO 0,00 h 0 W/m 9,0 km/h (2 Bft)
22.10.2011 05:00 0,6 C 96 % 1024,3 hPa 0,0 l/m O 0,00 h 0 W/m 7,6 km/h (2 Bft)
22.10.2011 06:00 0,7 C 96 % 1024,3 hPa 0,0 l/m O-NO 0,00 h 0 W/m 7,1 km/h (2 Bft)
22.10.2011 07:00 0,8 C 94 % 1024,2 hPa 0,0 l/m O 0,00 h 0 W/m 5,6 km/h (1 Bft)
22.10.2011 08:00 1,0 C 94 % 1024,6 hPa 0,0 l/m SO 0,00 h 12 W/m 5,9 km/h (2 Bft)
22.10.2011 09:00 1,2 C 93 % 1024,7 hPa 0,0 l/m SO 0,00 h 37 W/m 5,9 km/h (2 Bft)
22.10.2011 10:00 1,2 C 92 % 1024,7 hPa 0,0 l/m SO 0,00 h 59 W/m 5,3 km/h (1 Bft)
22.10.2011 11:00 1,8 C 90 % 1024,7 hPa 0,0 l/m O-SO 0,00 h 97 W/m 4,9 km/h (1 Bft)
22.10.2011 12:00 2,5 C 88 % 1024,5 hPa 0,0 l/m S 0,00 h 93 W/m 4,8 km/h (1 Bft)
22.10.2011 13:00 2,9 C 87 % 1024,0 hPa 0,0 l/m O-SO 0,00 h 111 W/m 3,3 km/h (1 Bft)
22.10.2011 14:00 3,5 C 85 % 1023,4 hPa 0,0 l/m N-NO 0,25 h 221 W/m 4,9 km/h (1 Bft)
22.10.2011 15:00 3,9 C 83 % 1023,0 hPa 0,0 l/m N 0,33 h 206 W/m 5,7 km/h (1 Bft)
22.10.2011 16:00 4,1 C 84 % 1022,6 hPa 0,0 l/m N-NW 1,00 h 228 W/m 7,1 km/h (2 Bft)
22.10.2011 17:00 3,7 C 85 % 1022,4 hPa 0,0 l/m N-NW 0,67 h 76 W/m 4,9 km/h (1 Bft)
22.10.2011 18:00 2,9 C 86 % 1022,2 hPa 0,0 l/m N 0,08 h 10 W/m 2,5 km/h (1 Bft)
22.10.2011 19:00 1,6 C 89 % 1022,3 hPa 0,0 l/m N-NW 0,00 h 0 W/m 4,0 km/h (1 Bft)
22.10.2011 20:00 0,9 C 91 % 1022,3 hPa 0,0 l/m N-NW 0,00 h 0 W/m 5,7 km/h (1 Bft)
22.10.2011 21:00 0,5 C 93 % 1022,2 hPa 0,0 l/m N-NW 0,00 h 0 W/m 8,6 km/h (2 Bft)
22.10.2011 22:00 0,1 C 94 % 1022,1 hPa 0,0 l/m N-NW 0,00 h 0 W/m 4,5 km/h (1 Bft)
22.10.2011 23:00 -0,4 C 93 % 1021,9 hPa 0,0 l/m N 0,00 h 0 W/m 0,7 km/h (0 Bft)
23.10.2011 00:00 -1,1 C 93 % 1021,7 hPa 0,0 l/m N 0,00 h 0 W/m 0,0 km/h (0 Bft)
23.10.2011 01:00 -1,8 C 93 % 1021,6 hPa 0,0 l/m N 0,00 h 0 W/m 0,9 km/h (0 Bft)
23.10.2011 02:00 -2,0 C 95 % 1021,8 hPa 0,0 l/m N 0,00 h 0 W/m 0,4 km/h (0 Bft)
23.10.2011 03:00 -1,1 C 96 % 1021,6 hPa 0,0 l/m N 0,00 h 0 W/m 0,4 km/h (0 Bft)
23.10.2011 04:00 -0,2 C 97 % 1021,5 hPa 0,0 l/m N 0,00 h 0 W/m 0,5 km/h (0 Bft)
23.10.2011 05:00 0,5 C 97 % 1021,4 hPa 0,2 l/m S-SW 0,00 h 0 W/m 7,2 km/h (2 Bft)
23.10.2011 06:00 0,9 C 97 % 1021,4 hPa 0,0 l/m S-SW 0,00 h 0 W/m 6,7 km/h (2 Bft)
23.10.2011 07:00 0,9 C 97 % 1021,3 hPa 0,0 l/m SW 0,00 h 0 W/m 3,1 km/h (1 Bft)
23.10.2011 08:00 0,8 C 97 % 1021,1 hPa 0,0 l/m SW 0,00 h 11 W/m 0,8 km/h (0 Bft)
23.10.2011 09:00 0,9 C 97 % 1021,1 hPa 0,0 l/m SW 0,00 h 33 W/m 2,3 km/h (1 Bft)
23.10.2011 10:00 1,3 C 98 % 1021,0 hPa 0,0 l/m N 0,00 h 61 W/m 1,7 km/h (1 Bft)
23.10.2011 11:00 1,8 C 98 % 1020,7 hPa 0,0 l/m SW 0,00 h 101 W/m 2,8 km/h (1 Bft)
23.10.2011 12:00 2,9 C 97 % 1020,2 hPa 0,0 l/m SW 0,00 h 169 W/m 5,1 km/h (1 Bft)
23.10.2011 13:00 4,5 C 92 % 1019,3 hPa 0,0 l/m W-SW 0,92 h 499 W/m 8,2 km/h (2 Bft)
23.10.2011 14:00 6,1 C 88 % 1018,3 hPa 0,0 l/m N-NO 1,00 h 472 W/m 10,1 km/h (2 Bft)
23.10.2011 15:00 5,9 C 88 % 1017,6 hPa 0,0 l/m N-NO 0,50 h 263 W/m 12,2 km/h (2 Bft)
23.10.2011 16:00 4,3 C 93 % 1017,1 hPa 0,0 l/m N-NO 0,00 h 98 W/m 12,0 km/h (2 Bft)
23.10.2011 17:00 3,9 C 94 % 1016,6 hPa 0,0 l/m N 0,00 h 32 W/m 11,3 km/h (2 Bft)
23.10.2011 18:00 3,3 C 94 % 1016,3 hPa 0,0 l/m N-NO 0,00 h 6 W/m 11,2 km/h (2 Bft)
23.10.2011 19:00 2,5 C 95 % 1016,2 hPa 0,0 l/m N 0,00 h 0 W/m 9,9 km/h (2 Bft)
23.10.2011 20:00 2,3 C 96 % 1015,9 hPa 0,0 l/m N 0,00 h 0 W/m 9,7 km/h (2 Bft)
23.10.2011 21:00 2,3 C 96 % 1015,6 hPa 0,0 l/m N 0,00 h 0 W/m 7,8 km/h (2 Bft)
23.10.2011 22:00 2,3 C 97 % 1015,4 hPa 0,0 l/m N-NO 0,00 h 0 W/m 7,5 km/h (2 Bft)
23.10.2011 23:00 2,2 C 97 % 1015,2 hPa 0,0 l/m N 0,00 h 0 W/m 2,5 km/h (1 Bft)
Min-Datum _ 23.10.11 20.10.11 19.10.11 - - - - 17.10.11
_ Min-Zeit 01:55 16:35 06:20 - - - - 00:20
Minimum _ -2,1 C 51 % 1011,6 hPa - - - - 0,0 km/h (0 Bft)
Max-Datum _ 18.10.11 17.10.11 21.10.11 19.10.11 - 17.10.11 20.10.11 18.10.11
_ Max-Zeit 15:15 07:35 10:30 15:00 - 15:55 13:45 14:55
Maximum _ 16,1 C 99 % 1028,1 hPa 2,2 l/m - 0,08 h 647 W/m 32,2 km/h
SW (5 Bft)
Durchschnitt _ 4,7 C 90 % 1021,5 hPa #16,0 l/m W-SW #19:35 h 137 W/m 6,5 km/h (2 Bft)